Portada
METAR-TAF:

METAR-TAF

Aeroports :

Camdenton, Missouri, Estats Units d'Amèrica

latitud: 37-58-26N, longitud: 092-41-28W, altitud: 324 m

Observació

L'informe es va fer fa 28 minuts, a les 12:35 UTC
Vent 5 kt del Oest
Temperatura 6°C
Humitat 87%
Pressió 1012 hPa
Visibilitat: 16.1 km
Cel clar

METAR: KOZS 191235Z AUTO 26005KT 10SM CLR 06/04 A2987 RMK AO2

Hora: 07:03 (13:03 UTC)


TAF: manca

Observacions i pronòstics meteorològics de més de 4000 aeroports (METAR i TAF).

Les estacions disponibles són els punts grocs i vermells al mapa.

Posi el ratolí al punt desitjat per veure el nom de l'estació.

Feu clic per veure les observacions i els pronòstics meteorològics.

Per canviar el mapa: feu clic els botons verds amb una creu de color negre per apropar; al botó verd amb un guió per allunyar la imatge; o en les fletxes verdes per a mapes adjacents.


METAR-TAF: